Tiempo atmosférico en la estación meteorológica de Coll De Nargó, Lleida (603 m.)



Fecha
DESCASC
Temp. máxima en grados centígrados (hora)
DESCASC
Temp. mínima en grados centígrados (hora)
DESCASC
Temp. media en grados centígrados
DESCASC
Racha de viento máxima en m/sg (hora)
DESCASC
Velocidad máxima media en intervalos de 10 minutos(hora)
DESCASC
Precipitaciones diarias en mm
DESCASC
Precipitaciones de 00:00 a 06:00 en mm
DESCASC
Precipitaciones de 06:00 a 12:00 en mm
DESCASC
Precipitaciones de 12:00 a 18:00 en mm
DESCASC
Precipitaciones de 18:00 a 24:00 en mm
DESCASC
31-03-2020 9.6 (14:50) 3 (00:10) 6.3 5.28 (20:20) 3.89 (20:20) 8 0.4 0.2 1.4 6
30-03-2020 8.3 (00:00) 3.1 (23:50) 5.7 12.22 (14:10) 9.72 (18:10) 0.6 0 0 0 0.6
29-03-2020 17.4 (15:20) 2.9 (00:00) 10.1 13.33 (13:50) 10.83 (13:30) 1.8 0 0 0 1.8
28-03-2020 15.7 (14:10) 3.4 (00:00) 9.5 10.83 (13:30) 8.33 (12:30) 0 0 0 0 0
27-03-2020 12.8 (13:40) -2.4 (-00:0) 5.2 11.67 (16:40) 8.89 (16:00) 0.4 0 0 0 0.4
26-03-2020 10.6 (14:40) -0.6 (-00:0) 5 12.22 (15:50) 9.72 (15:10) 0 0 0 0 0
25-03-2020 10.4 (14:40) 1.5 (00:00) 5.9 10.83 (04:10) 7.5 (00:20) 0.8 0 0.6 0.2 0
24-03-2020 16.8 (14:00) 4.7 (00:00) 10.7 12.22 (14:40) 8.61 (14:10) 0 0 0 0 0
23-03-2020 14.1 (16:50) 5.3 (00:00) 9.7 8.61 (19:50) 5.83 (19:50) 0.6 0 0 0.6 0
22-03-2020 16.9 (16:00) 5.9 (07:00) 11.4 12.5 (19:10) 8.33 (19:10) 0 0 0 0 0
21-03-2020 17.3 (15:30) 0.8 (00:00) 9 9.17 (14:00) 6.94 (13:10) 0 0 0 0 0
20-03-2020 18.1 (14:30) 2.9 (00:00) 10.5 11.67 (13:30) 7.22 (13:30) 0 0 0 0 0
19-03-2020 20.4 (13:40) 3.5 (00:00) 11.9 12.78 (14:20) 7.5 (14:10) 0 0 0 0 0
18-03-2020 15.2 (14:00) 5.6 (00:00) 10.4 11.11 (14:30) 9.72 (14:50) 0 0 0 0 0
17-03-2020 13.4 (17:00) 6.6 (00:00) 10 2.78 (05:00) 2.5 (04:50) 1.4 0.8 0.4 0.2 0
16-03-2020 8.9 (00:20) 6.6 (00:00) 7.7 10.83 (00:20) 5 (00:40) 57 16.4 11.6 21.4 7.6
15-03-2020 19.9 (14:20) 4.5 (00:00) 12.2 12.5 (15:10) 8.61 (20:00) 0.2 0 0 0 0.2
14-03-2020 15.1 (15:10) 6.4 (00:00) 10.8 15.83 (12:50) 13.89 (13:00) 0 0 0 0 0
13-03-2020 18.5 (13:10) 9.6 (07:40) 14.1 12.5 (17:20) 10.83 (17:20) 0 0 0 0 0
12-03-2020 26.4 (13:50) 5.8 (00:00) 16.1 9.72 (14:20) 7.22 (14:40) 0.2 0 0.2 0 0
11-03-2020 21.2 (14:50) 2.2 (00:00) 11.7 14.44 (16:40) 11.94 (15:10) 0 0 0 0 0
10-03-2020 13.7 (12:40) 3.1 (00:00) 8.4 15.56 (13:40) 12.5 (13:40) 0 0 0 0 0
09-03-2020 15.3 (13:30) 1.5 (00:00) 8.4 20.56 (16:00) 13.61 (15:40) 0 0 0 0 0
08-03-2020 15.5 (14:40) 2.5 (00:00) 9 16.11 (15:30) 11.67 (14:00) 0 0 0 0 0
07-03-2020 14.9 (16:20) 2.1 (00:00) 8.5 21.67 (09:40) 13.06 (09:10) 0 0 0 0 0
06-03-2020 15.3 (12:40) -1.7 (-00:0) 6.8 13.61 (21:50) 8.06 (22:00) 0.2 0 0.2 0 0
05-03-2020 14.8 (13:00) 4.2 (00:00) 9.5 11.11 (16:40) 6.39 (16:40) 0.6 0 0 0.6 0
04-03-2020 19.6 (15:40) 0.1 (00:00) 9.9 9.72 (00:20) 7.22 (00:10) 0 0 0 0 0
03-03-2020 10.7 (21:30) -1.1 (-00:0) 4.8 13.89 (20:10) 7.5 (21:10) 0 0 0 0 0

Gráficas

Temp. máximas Temp. mínimas Temp. medias Precipitaciones Rachas de viento máximas Velocidades máximas media en intervalos de 10 minutos

Datos horarios

Fecha y hora oficial Temperatura (ºC) Velocidad del viento (km/h) Dirección del viento Racha (km/h) Dirección de racha Precipitación (mm) Presión (hPa) Tendencia (hPa) Humedad (%)
2020-04-01 23:00:00 6.5 15 Sur 26 Sur 0 -- -- 99
2020-04-01 22:00:00 6.5 25 Sur 37 Sur 0.4 -- -- 99
2020-04-01 21:00:00 6.8 31 Sur 44 Sur 0.4 -- -- 98
2020-04-01 20:00:00 7.4 35 Sur 47 Sur 0.6 -- -- 98
2020-04-01 19:00:00 8.7 33 Sudeste 41 Sudeste 0 -- -- 89
2020-04-01 18:00:00 11.1 0 Calma 5 Norte 0 -- -- 83
2020-04-01 17:00:00 10.5 3 Norte 5 Norte 0 -- -- 92
2020-04-01 16:00:00 10.5 3 Sur 8 Nordeste 0 -- -- 89
2020-04-01 15:00:00 10.7 0 Calma 8 Sudeste 0 -- -- 86
2020-04-01 14:00:00 9.4 5 Sudoeste 15 Sur 0.4 -- -- 94
2020-04-01 13:00:00 8.4 15 Sur 33 Sur 0 -- -- 94
2020-04-01 12:00:00 8.6 2 Norte 4 Nordeste 0 -- -- 99
2020-04-01 11:00:00 8.4 3 Sur 4 Sur 0 -- -- 99
2020-04-01 10:00:00 7.6 2 Norte 5 Nordeste 0 -- -- 100
2020-04-01 09:00:00 6.7 4 Nordeste 5 Nordeste 0.2 -- -- 100
2020-04-01 08:00:00 6.6 2 Noroeste 5 Norte 0 -- -- 100
2020-04-01 07:00:00 6.5 4 Norte 5 Norte 0 -- -- 100
2020-04-01 06:00:00 6.5 2 Nordeste 5 Norte 0 -- -- 100
2020-04-01 05:00:00 6.5 3 Noroeste 5 Norte 0 -- -- 100
2020-04-01 04:00:00 6.5 4 Norte 5 Norte 2 -- -- 100
2020-04-01 03:00:00 6.7 2 Norte 6 Nordeste 2 -- -- 100
2020-04-01 02:00:00 6.6 4 Norte 6 Nordeste 0 -- -- 100
2020-04-01 01:00:00 6.7 3 Nordeste 5 Nordeste 0.2 -- -- 100
2020-04-01 00:00:00 6.8 4 Nordeste 6 Nordeste 0.4 -- -- 100
2020-03-31 23:00:00 7 3 Norte 6 Norte 0.6 -- -- 99
2020-03-31 22:00:00 7.2 3 Norte 4 Norte 1.2 -- -- 99
2020-03-31 21:00:00 7.4 0 Calma 19 Sur 1.4 -- -- 98
2020-03-31 20:00:00 7.7 11 Sur 15 Sur 1.6 -- -- 97
2020-03-31 19:00:00 8.4 2 Sudoeste 4 Oeste 0.8 -- -- 98
2020-03-31 18:00:00 8.7 0 Calma 6 Norte 0.4 -- -- 97
2020-03-31 17:00:00 8.7 2 Norte 9 Sudeste 0.6 -- -- 95
2020-03-31 16:00:00 9 0 Calma 7 Noroeste 0.4 -- -- 90
2020-03-31 15:00:00 9.5 5 Norte 7 Norte 0 -- -- 88
2020-03-31 14:00:00 8.4 3 Norte 6 Norte 0 -- -- 87
2020-03-31 13:00:00 7.6 5 Norte 8 Norte 0 -- -- 91
2020-03-31 12:00:00 7.3 0 Calma 7 Norte 0 -- -- 93
2020-03-31 11:00:00 7.5 3 Sudeste 6 Nordeste 0 -- -- 94
2020-03-31 10:00:00 6.4 2 Noroeste 5 Norte 0 -- -- 98
2020-03-31 09:00:00 4.9 2 Norte 6 Norte 0 -- -- 100
2020-03-31 08:00:00 4.4 2 Nordeste 7 Norte 0.2 -- -- 100
2020-03-31 07:00:00 4.2 3 Norte 8 Noroeste 0 -- -- 100
2020-03-31 06:00:00 4.1 5 Norte 8 Norte 0 -- -- 100
2020-03-31 05:00:00 3.9 4 Norte 6 Noroeste 0 -- -- 100
2020-03-31 04:00:00 3.7 4 Norte 8 Norte 0 -- -- 100
2020-03-31 03:00:00 3.6 5 Norte 8 Norte 0 -- -- 99
2020-03-31 02:00:00 3.4 5 Norte 7 Norte 0.2 -- -- 99
2020-03-31 01:00:00 3.2 4 Norte 12 Sur 0.2 -- -- 98
2020-03-31 00:00:00 3.1 12 Sur 17 Sur 0.4 -- -- 97
2020-03-30 23:00:00 3.3 7 Sur 15 Sur 0 -- -- 94
2020-03-30 22:00:00 3.2 18 Sur 30 Sur 0 -- -- 93
2020-03-30 21:00:00 3.2 19 Sur 30 Sur 0 -- -- 94
2020-03-30 20:00:00 3.3 23 Sur 37 Sur 0 -- -- 94
2020-03-30 19:00:00 4.4 28 Sur 43 Sur 0.2 -- -- 88
2020-03-30 18:00:00 5.3 34 Sur 42 Sur 0 -- -- 81
2020-03-30 17:00:00 7.1 23 Sudeste 32 Sur 0 -- -- 75
2020-03-30 16:00:00 5.6 21 Sur 36 Sur 0 -- -- 81
2020-03-30 15:00:00 4.5 27 Sur 44 Sur 0 -- -- 87
2020-03-30 14:00:00 3.5 30 Sur 40 Sur 0 -- -- 87
2020-03-30 13:00:00 3.4 25 Sur 31 Sur 0 -- -- 88
2020-03-30 12:00:00 3.4 18 Sur 37 Sudeste 0 -- -- 88
2020-03-30 11:00:00 3.9 25 Sur 40 Sur 0 -- -- 91
2020-03-30 10:00:00 3.9 16 Sur 37 Sur 0 -- -- 93
2020-03-30 09:00:00 4.7 21 Sur 39 Sudeste 0 -- -- 95
2020-03-30 08:00:00 5.2 16 Sur 30 Sudeste 0 -- -- 94
2020-03-30 07:00:00 5.5 13 Sur 32 Sur 0 -- -- 92
2020-03-30 06:00:00 5.8 21 Sur 38 Sur 0 -- -- 92
2020-03-30 05:00:00 6.1 28 Sur 40 Sur 0 -- -- 93
2020-03-30 04:00:00 6.5 30 Sur 39 Sur 0 -- -- 93
2020-03-30 03:00:00 7 30 Sur 37 Sur 0 -- -- 92
2020-03-30 02:00:00 8 21 Sur 28 Sudeste 0 -- -- 97
2020-03-30 01:00:00 8.1 0 Calma 7 Sur 0 -- -- 99
2020-03-30 00:00:00 8.3 2 Sur 7 Sudoeste 0.4 -- -- 98
2020-03-29 23:00:00 8.4 3 Nordeste 5 Norte 0.4 -- -- 97
2020-03-29 22:00:00 8.7 0 Calma 4 Sur 0.2 -- -- 94
2020-03-29 21:00:00 9.5 2 Sudeste 31 Sudeste 0.2 -- -- 89
2020-03-29 20:00:00 9.8 17 Sur 25 Sur 0.6 -- -- 90
2020-03-29 19:00:00 13.3 14 Sur 30 Sur 0 -- -- 62
2020-03-29 18:00:00 14.1 23 Sur 38 Sur 0 -- -- 62
2020-03-29 17:00:00 14.8 30 Sur 44 Sur 0 -- -- 61
2020-03-29 16:00:00 14.8 34 Sur 46 Sur 0 -- -- 59
2020-03-29 15:00:00 16.9 35 Sur 47 Sur 0 -- -- 54
2020-03-29 14:00:00 16.3 37 Sur 48 Sur 0 -- -- 55
2020-03-29 13:00:00 15.3 34 Sur 40 Sur 0 -- -- 57
2020-03-29 12:00:00 14.9 13 Sur 23 Sur 0 -- -- 49
2020-03-29 11:00:00 12.3 4 Nordeste 8 Nordeste 0 -- -- 54
2020-03-29 10:00:00 9.1 5 Nordeste 7 Nordeste 0 -- -- 65
2020-03-29 09:00:00 4 3 Norte 8 Nordeste 0 -- -- 85
2020-03-29 08:00:00 3.3 4 Norte 9 Norte 0 -- -- 89
2020-03-29 07:00:00 3.1 4 Norte 10 Norte 0 -- -- 90
2020-03-29 06:00:00 3.7 4 Norte 6 Norte 0 -- -- 92
2020-03-29 05:00:00 4.5 2 Noroeste 7 Noroeste 0 -- -- 90
2020-03-29 03:00:00 4.2 6 Norte 9 Norte 0 -- -- 100
2020-03-29 01:00:00 4.1 6 Norte 9 Norte 0 -- -- 97
2020-03-29 00:00:00 5.3 4 Norte 10 Norte 0 -- -- 95
2020-03-28 23:00:00 5.8 6 Norte 8 Nordeste 0 -- -- 90
2020-03-28 22:00:00 7 5 Norte 6 Norte 0 -- -- 87
2020-03-28 21:00:00 8.5 5 Sur 10 Sur 0 -- -- 79
2020-03-28 20:00:00 10.2 8 Sur 24 Sur 0 -- -- 71
2020-03-28 19:00:00 11.4 18 Sur 31 Sudeste 0 -- -- 67
2020-03-28 18:00:00 12.3 22 Sudeste 29 Sur 0 -- -- 62
2020-03-28 17:00:00 13.2 24 Sur 34 Sur 0 -- -- 59
2020-03-28 16:00:00 13.9 24 Sur 34 Sudeste 0 -- -- 56
2020-03-28 15:00:00 14.4 25 Sur 37 Sur 0 -- -- 55
2020-03-28 14:00:00 15.5 29 Sur 39 Sur 0 -- -- 51
2020-03-28 13:00:00 13.8 27 Sur 38 Sur 0 -- -- 59
2020-03-28 12:00:00 14.1 23 Sur 31 Sur 0 -- -- 53
2020-03-28 11:00:00 12.9 5 Sur 12 Sudeste 0 -- -- 65
2020-03-28 10:00:00 8.3 4 Norte 8 Norte 0 -- -- 84
2020-03-28 09:00:00 6.1 4 Norte 6 Nordeste 0 -- -- 98
2020-03-28 08:00:00 4.2 4 Norte 6 Norte 0 -- -- 100
2020-03-28 07:00:00 3.5 5 Norte 7 Norte 0 -- -- 100
2020-03-28 06:00:00 3.8 3 Noroeste 10 Norte 0 -- -- 100
2020-03-28 05:00:00 3.6 6 Norte 9 Norte 0 -- -- 100
2020-03-28 04:00:00 4 4 Norte 7 Norte 0 -- -- 100
2020-03-28 03:00:00 4.2 7 Norte 9 Norte 0 -- -- 100
2020-03-28 02:00:00 4.9 5 Norte 8 Nordeste 0 -- -- 99
2020-03-28 01:00:00 5.2 6 Norte 6 Norte 0 -- -- 98
2020-03-28 00:00:00 5.5 0 Calma 4 Sur 0 -- -- 97
2020-03-27 23:00:00 5.7 4 Sur 8 Sur 0 -- -- 96
2020-03-27 22:00:00 6 2 Sudoeste 5 Sur 0 -- -- 94
2020-03-27 21:00:00 6.3 4 Sur 13 Sur 0.4 -- -- 92
2020-03-27 20:00:00 7.1 11 Sur 27 Sur 0 -- -- 85
2020-03-27 19:00:00 8.1 19 Sur 32 Sudeste 0 -- -- 80
2020-03-27 18:00:00 9.4 24 Sur 40 Sudeste 0 -- -- 68
2020-03-27 17:00:00 10.1 29 Sur 42 Sur 0 -- -- 62
2020-03-27 16:00:00 11.2 32 Sur 41 Sur 0 -- -- 58
2020-03-27 15:00:00 12.3 30 Sur 37 Sur 0 -- -- 56
2020-03-27 14:00:00 12.3 26 Sur 36 Sur 0 -- -- 50
2020-03-27 13:00:00 11 24 Sur 30 Sur 0 -- -- 45
2020-03-27 12:00:00 10.8 3 Oeste 8 Norte 0 -- -- 39
2020-03-27 11:00:00 10.1 4 Norte 13 Nordeste 0 -- -- 42
2020-03-27 10:00:00 4.7 6 Nordeste 13 Norte 0 -- -- 60
2020-03-27 09:00:00 3.1 4 Norte 7 Norte 0 -- -- 75
2020-03-27 08:00:00 -0.7 3 Norte 5 Norte 0 -- -- 89
2020-03-27 07:00:00 -2.3 4 Norte 6 Nordeste 0 -- -- 97
2020-03-27 06:00:00 -2.2 4 Norte 11 Nordeste 0 -- -- 97
2020-03-27 05:00:00 -2.1 4 Nordeste 10 Nordeste 0 -- -- 100
2020-03-27 04:00:00 -2.1 6 Norte 12 Norte 0 -- -- 100
2020-03-27 03:00:00 -1.8 8 Nordeste 12 Nordeste 0 -- -- 99
2020-03-27 02:00:00 -1.6 7 Norte 10 Norte 0 -- -- 99
2020-03-27 01:00:00 -1.2 5 Norte 6 Norte 0 -- -- 98
2020-03-27 00:00:00 -0.6 5 Norte 10 Norte 0 -- -- 97
2020-03-26 23:00:00 0 6 Nordeste 9 Norte 0 -- -- 94
2020-03-26 22:00:00 1.1 5 Nordeste 6 Nordeste 0 -- -- 91
2020-03-26 21:00:00 2.2 3 Nordeste 5 Nordeste 0 -- -- 87
2020-03-26 20:00:00 3.4 3 Sudoeste 31 Sur 0 -- -- 81
2020-03-26 19:00:00 4.2 17 Sudeste 35 Sur 0 -- -- 78
2020-03-26 18:00:00 5.3 25 Sur 40 Sur 0 -- -- 73
2020-03-26 17:00:00 5.6 29 Sur 42 Sur 0 -- -- 72
2020-03-26 16:00:00 6.4 22 Sur 44 Sur 0 -- -- 65
2020-03-26 15:00:00 8.1 32 Sudeste 41 Sur 0 -- -- 56
2020-03-26 14:00:00 8.7 15 Nordeste 38 Nordeste 0 -- -- 47
2020-03-26 13:00:00 10.4 14 Nordeste 27 Nordeste 0 -- -- 42
2020-03-26 12:00:00 8.5 19 Nordeste 35 Nordeste 0 -- -- 47
2020-03-26 11:00:00 9.7 17 Norte 28 Norte 0 -- -- 50
2020-03-26 10:00:00 5.5 4 Sur 9 Nordeste 0 -- -- 75
2020-03-26 09:00:00 5.5 5 Nordeste 12 Nordeste 0 -- -- 77
2020-03-26 08:00:00 1.2 4 Nordeste 8 Nordeste 0 -- -- 97
2020-03-26 07:00:00 0.1 4 Norte 9 Norte 0 -- -- 98
2020-03-26 06:00:00 -0.2 6 Noroeste 9 Norte 0 -- -- 99
2020-03-26 05:00:00 0.3 4 Norte 9 Norte 0 -- -- 96
2020-03-26 04:00:00 0.8 4 Norte 8 Norte 0 -- -- 94
2020-03-26 03:00:00 1.3 2 Noroeste 8 Norte 0 -- -- 94
2020-03-26 02:00:00 1.8 0 Calma 4 Norte 0 -- -- 92
2020-03-26 01:00:00 2 0 Calma 7 Sur 0 -- -- 90
2020-03-26 00:00:00 3.3 3 Oeste 6 Norte 0 -- -- 84
2020-03-25 23:00:00 4.1 2 Norte 10 Sur 0 -- -- 81
2020-03-25 22:00:00 5.1 6 Sur 13 Sur 0 -- -- 75
2020-03-25 21:00:00 5.5 9 Sur 19 Sudeste 0 -- -- 69
2020-03-25 20:00:00 5.6 13 Sur 23 Sur 0 -- -- 67
2020-03-25 19:00:00 5.9 14 Sur 22 Sur 0 -- -- 65
2020-03-25 18:00:00 6.8 13 Sur 19 Sur 0 -- -- 60
2020-03-25 17:00:00 7.7 13 Sur 24 Sudeste 0 -- -- 55
2020-03-25 16:00:00 8.4 19 Sudeste 28 Sur 0 -- -- 50
2020-03-25 15:00:00 8.9 19 Sur 26 Sur 0.2 -- -- 52
2020-03-25 14:00:00 9.8 5 Nordeste 10 Nordeste 0 -- -- 59
2020-03-25 13:00:00 5.2 0 Calma 8 Nordeste 0 -- -- 83
2020-03-25 12:00:00 2.8 3 Sur 20 Sur 0.2 -- -- 87
2020-03-25 11:00:00 2 14 Sur 28 Sur 0.4 -- -- 94
2020-03-25 10:00:00 1.7 16 Sudeste 32 Sur 0 -- -- 93
2020-03-25 09:00:00 2.1 22 Sur 37 Sudeste 0 -- -- 87
2020-03-25 08:00:00 3.7 17 Sudeste 35 Sudeste 0 -- -- 70
2020-03-25 07:00:00 3.5 15 Sur 39 Sur 0 -- -- 81
2020-03-25 06:00:00 3.6 22 Sur 36 Sudeste 0 -- -- 81
2020-03-25 05:00:00 3.9 19 Sur 39 Sur 0 -- -- 85
2020-03-25 04:00:00 4 22 Sur 36 Sudeste 0 -- -- 89
2020-03-25 03:00:00 4.5 21 Sur 36 Sur 0 -- -- 86
2020-03-25 02:00:00 4.7 24 Sur 31 Sur 0 -- -- 89
2020-03-25 01:00:00 4.4 23 Sur 38 Sur 0 -- -- 92
2020-03-25 00:00:00 4.7 24 Sur 37 Sur 0 -- -- 91
2020-03-24 23:00:00 5.2 26 Sur 36 Sudeste 0 -- -- 89
2020-03-24 22:00:00 5.6 23 Sur 33 Sur 0 -- -- 91
2020-03-24 21:00:00 6.8 21 Sur 30 Sur 0 -- -- 84
2020-03-24 20:00:00 7.7 23 Sur 33 Sudeste 0 -- -- 79
2020-03-24 19:00:00 8.5 21 Sur 36 Sudeste 0 -- -- 74
2020-03-24 18:00:00 9.6 23 Sur 41 Sur 0 -- -- 66
2020-03-24 17:00:00 10 25 Sur 42 Sur 0 -- -- 64
2020-03-24 16:00:00 11.5 28 Sur 42 Sur 0 -- -- 61
2020-03-24 15:00:00 12.9 26 Sur 44 Sur 0 -- -- 60
2020-03-24 14:00:00 16.8 24 Sur 41 Sudeste 0 -- -- 49
2020-03-24 13:00:00 15.8 28 Sur 37 Sudeste 0 -- -- 53
2020-03-24 12:00:00 15.7 25 Sur 31 Sur 0 -- -- 57
2020-03-24 11:00:00 14.2 12 Sudeste 18 Sur 0 -- -- 62
2020-03-24 10:00:00 10.8 8 Sur 15 Sur 0 -- -- 74
2020-03-24 09:00:00 8.6 5 Sudeste 6 Sudeste 0 -- -- 84
2020-03-24 08:00:00 6.8 0 Calma 14 Sudeste 0 -- -- 94
2020-03-24 07:00:00 6.4 9 Sur 15 Sur 0 -- -- 94
2020-03-24 06:00:00 6.5 9 Sur 17 Sur 0 -- -- 95
2020-03-24 05:00:00 5.9 4 Sudeste 15 Sur 0 -- -- 97
2020-03-24 04:00:00 6.1 3 Sur 6 Norte 0 -- -- 96
2020-03-24 03:00:00 6.3 0 Calma 4 Nordeste 0 -- -- 94
2020-03-24 02:00:00 6.6 0 Calma 10 Sur 0 -- -- 94
2020-03-24 01:00:00 6.5 2 Este 17 Sur 0 -- -- 94
2020-03-24 00:00:00 7 12 Sudeste 19 Sur 0 -- -- 92
2020-03-23 23:00:00 7.2 3 Nordeste 16 Sur 0 -- -- 90
2020-03-23 22:00:00 8 10 Sur 16 Sur 0 -- -- 88
2020-03-23 21:00:00 9.6 3 Sur 26 Sur 0 -- -- 79
2020-03-23 20:00:00 10.8 17 Sur 31 Sur 0 -- -- 76
2020-03-23 19:00:00 10.9 10 Sur 23 Sur 0 -- -- 77
2020-03-23 18:00:00 11.9 14 Sur 23 Sur 0 -- -- 72
2020-03-23 17:00:00 13.7 11 Sudoeste 21 Sudeste 0 -- -- 67
2020-03-23 16:00:00 13.4 10 Sur 27 Sur 0 -- -- 74
2020-03-23 15:00:00 11.7 13 Sur 22 Sur 0.2 -- -- 78
2020-03-23 14:00:00 10.8 15 Sur 26 Sur 0.4 -- -- 87
2020-03-23 13:00:00 10.9 11 Sur 25 Sudeste 0 -- -- 83
2020-03-23 12:00:00 10.7 18 Sur 29 Sur 0 -- -- 89
2020-03-23 11:00:00 11 10 Sur 18 Sur 0 -- -- 80
2020-03-23 10:00:00 9 3 Norte 6 Norte 0 -- -- 85
2020-03-23 09:00:00 7.8 0 Calma 5 Noroeste 0 -- -- 93
2020-03-23 08:00:00 6.6 5 Norte 6 Norte 0 -- -- 95
2020-03-23 07:00:00 6.2 3 Norte 4 Nordeste 0 -- -- 94
2020-03-23 06:00:00 5.9 2 Norte 6 Norte 0 -- -- 95
2020-03-23 05:00:00 5.3 4 Norte 6 Norte 0 -- -- 97
2020-03-23 04:00:00 5.4 3 Norte 6 Norte 0 -- -- 96
2020-03-23 03:00:00 5.6 2 Norte 8 Nordeste 0 -- -- 96
2020-03-23 02:00:00 6 4 Nordeste 7 Nordeste 0 -- -- 94
2020-03-23 01:00:00 7 2 Norte 8 Sur 0 -- -- 91
2020-03-23 00:00:00 8.6 7 Sur 27 Sudeste 0 -- -- 87
2020-03-22 23:00:00 9.7 20 Sudeste 33 Sudeste 0 -- -- 81
2020-03-22 22:00:00 10.3 17 Sur 31 Sudeste 0 -- -- 80
2020-03-22 21:00:00 10.9 15 Sudeste 32 Sudeste 0 -- -- 77
2020-03-22 20:00:00 10.9 24 Sur 45 Sur 0 -- -- 74
2020-03-22 19:00:00 11.6 21 Sur 35 Sur 0 -- -- 70
2020-03-22 18:00:00 13.6 15 Sudoeste 32 Sudoeste 0 -- -- 56
2020-03-22 17:00:00 14.6 22 Sudoeste 41 Sudeste 0 -- -- 52
2020-03-22 16:00:00 16.9 13 Sur 28 Sur 0 -- -- 45
2020-03-22 15:00:00 15.3 18 Sur 27 Sur 0 -- -- 50
2020-03-22 14:00:00 15.1 19 Sur 36 Sur 0 -- -- 53
2020-03-22 13:00:00 13.7 20 Sur 37 Sur 0 -- -- 62
2020-03-22 12:00:00 12.2 20 Sur 31 Sudeste 0 -- -- 67
2020-03-22 11:00:00 10.9 0 Calma 6 Nordeste 0 -- -- 71
2020-03-22 10:00:00 10.8 0 Calma 6 Norte 0 -- -- 72
2020-03-22 09:00:00 7.7 2 Noroeste 6 Norte 0 -- -- 86
2020-03-22 08:00:00 6 3 Norte 5 Norte 0 -- -- 92
2020-03-22 07:00:00 5.9 4 Norte 9 Norte 0 -- -- 91
2020-03-22 06:00:00 6.6 3 Norte 4 Norte 0 -- -- 90
2020-03-22 05:00:00 7.2 0 Calma 3 Norte 0 -- -- 84
2020-03-22 04:00:00 7.1 2 Noroeste 7 Norte 0 -- -- 84
2020-03-22 03:00:00 7.6 3 Nordeste 4 Nordeste 0 -- -- 82
2020-03-22 02:00:00 7.9 2 Norte 9 Nordeste 0 -- -- 81
2020-03-22 01:00:00 8.6 3 Sudeste 19 Sur 0 -- -- 80
2020-03-22 00:00:00 9.6 15 Sur 23 Sur 0 -- -- 77
2020-03-21 23:00:00 10.1 19 Sur 24 Sur 0 -- -- 75
2020-03-21 22:00:00 10.6 19 Sur 31 Sur 0 -- -- 71
2020-03-21 21:00:00 11.6 17 Sur 26 Sudeste 0 -- -- 63
2020-03-21 20:00:00 12.1 15 Sur 32 Sudeste 0 -- -- 58
2020-03-21 19:00:00 12.6 14 Sur 29 Sudoeste 0 -- -- 56
2020-03-21 18:00:00 14.6 16 Sur 31 Sur 0 -- -- 46
2020-03-21 17:00:00 16.7 13 Sur 29 Sur 0 -- -- 43
2020-03-21 16:00:00 17.1 18 Sudeste 33 Sur 0 -- -- 43
2020-03-21 15:00:00 16.8 24 Sur 33 Sur 0 -- -- 44
2020-03-21 14:00:00 16.2 22 Sur 33 Sur 0 -- -- 45
2020-03-21 13:00:00 16 23 Sur 32 Sur 0 -- -- 46
2020-03-21 12:00:00 15.3 19 Sur 27 Sur 0 -- -- 51
2020-03-21 11:00:00 11.6 4 Norte 7 Nordeste 0 -- -- 61
2020-03-21 10:00:00 8.9 5 Nordeste 8 Nordeste 0 -- -- 74
2020-03-21 09:00:00 3.8 5 Norte 6 Norte 0 -- -- 99
2020-03-21 08:00:00 0.9 4 Norte 6 Norte 0 -- -- 100
2020-03-21 07:00:00 0.8 5 Norte 7 Norte 0 -- -- 100
2020-03-21 06:00:00 1.2 4 Norte 6 Nordeste 0 -- -- 100
2020-03-21 05:00:00 1.6 6 Norte 7 Norte 0 -- -- 99
2020-03-21 04:00:00 2.1 5 Norte 6 Norte 0 -- -- 99
2020-03-21 03:00:00 2.7 4 Norte 5 Norte 0 -- -- 97
2020-03-21 02:00:00 3.7 3 Norte 4 Norte 0 -- -- 95
2020-03-21 01:00:00 4.1 2 Nordeste 6 Nordeste 0 -- -- 94
2020-03-21 00:00:00 5.3 3 Norte 4 Norte 0 -- -- 89
2020-03-20 23:00:00 6.7 0 Calma 8 Sur 0 -- -- 81
2020-03-20 22:00:00 8.2 0 Calma 26 Sur 0 -- -- 73
2020-03-20 21:00:00 9.6 19 Sur 25 Sur 0 -- -- 68
2020-03-20 20:00:00 10.5 16 Sur 31 Sur 0 -- -- 63
2020-03-20 19:00:00 11.7 18 Sur 34 Sur 0 -- -- 60
2020-03-20 18:00:00 13.5 18 Sudeste 29 Sur 0 -- -- 53
2020-03-20 17:00:00 15.9 18 Sur 37 Sudoeste 0 -- -- 44
2020-03-20 16:00:00 16.7 22 Sur 33 Sur 0 -- -- 41
2020-03-20 15:00:00 17.2 22 Sur 36 Sur 0 -- -- 41
2020-03-20 14:00:00 17.1 18 Sur 42 Sur 0 -- -- 40
2020-03-20 13:00:00 16.4 15 Sur 34 Sur 0 -- -- 44
2020-03-20 12:00:00 15.5 17 Sur 28 Sur 0 -- -- 46
2020-03-20 11:00:00 14.7 15 Sudeste 22 Sudeste 0 -- -- 52
2020-03-20 10:00:00 10.8 3 Norte 7 Norte 0 -- -- 70
2020-03-20 09:00:00 6.1 4 Norte 6 Nordeste 0 -- -- 97
2020-03-20 08:00:00 3 5 Nordeste 7 Norte 0 -- -- 100
2020-03-20 07:00:00 3.1 5 Norte 8 Norte 0 -- -- 99
2020-03-20 06:00:00 3.8 5 Nordeste 7 Nordeste 0 -- -- 98
2020-03-20 05:00:00 4.7 3 Nordeste 4 Norte 0 -- -- 97
2020-03-20 04:00:00 5.9 0 Calma 3 Norte 0 -- -- 91
2020-03-20 03:00:00 5.9 2 Norte 4 Norte 0 -- -- 93
2020-03-20 02:00:00 5.6 0 Calma 3 Norte 0 -- -- 94
2020-03-20 01:00:00 5.7 3 Norte 4 Norte 0 -- -- 93
2020-03-20 00:00:00 6.7 3 Norte 4 Norte 0 -- -- 88
2020-03-19 23:00:00 8.1 2 Nordeste 14 Sur 0 -- -- 81
2020-03-19 22:00:00 9.5 8 Sur 16 Sur 0 -- -- 75
2020-03-19 21:00:00 10.1 9 Sur 13 Sur 0 -- -- 72
2020-03-19 20:00:00 11.5 8 Sur 17 Sudeste 0 -- -- 64
2020-03-19 19:00:00 12.6 14 Sur 27 Sur 0 -- -- 59
2020-03-19 18:00:00 14.2 18 Sur 40 Sur 0 -- -- 50
2020-03-19 17:00:00 17.7 17 Sur 37 Sudeste 0 -- -- 46
2020-03-19 16:00:00 19.3 21 Sudoeste 40 Sur 0 -- -- 35
2020-03-19 15:00:00 19.7 22 Sur 46 Sur 0 -- -- 28
2020-03-19 14:00:00 19.6 21 Sudoeste 43 Sudoeste 0 -- -- 28
2020-03-19 13:00:00 19.2 23 Sur 34 Sudeste 0 -- -- 40
2020-03-19 12:00:00 16.7 3 Nordeste 9 Norte 0 -- -- 55
2020-03-19 11:00:00 12.9 5 Nordeste 9 Nordeste 0 -- -- 72
2020-03-19 10:00:00 9.7 7 Norte 10 Norte 0 -- -- 94
2020-03-19 09:00:00 7.4 3 Norte 5 Noroeste 0 -- -- 100
2020-03-19 08:00:00 5.1 2 Norte 4 Norte 0 -- -- 100
2020-03-19 07:00:00 3.6 4 Norte 5 Norte 0 -- -- 100
2020-03-19 06:00:00 3.7 4 Norte 6 Norte 0 -- -- 100
2020-03-19 05:00:00 4.8 3 Norte 5 Nordeste 0 -- -- 100
2020-03-19 04:00:00 4.9 5 Norte 6 Nordeste 0 -- -- 100
2020-03-19 03:00:00 6.1 3 Norte 6 Norte 0 -- -- 100
2020-03-19 02:00:00 6 6 Norte 7 Norte 0 -- -- 100
2020-03-19 01:00:00 6.5 4 Norte 9 Norte 0 -- -- 100
2020-03-19 00:00:00 7.1 5 Norte 7 Norte 0 -- -- 99
2020-03-18 23:00:00 8.2 4 Norte 5 Norte 0 -- -- 98
2020-03-18 22:00:00 9.1 3 Norte 3 Norte 0 -- -- 94
2020-03-18 21:00:00 10.2 0 Calma 6 Sur 0 -- -- 89
2020-03-18 20:00:00 11.1 5 Sur 18 Sur 0 -- -- 85
2020-03-18 19:00:00 12.2 13 Sur 25 Sur 0 -- -- 80
2020-03-18 18:00:00 13.7 18 Sur 30 Sur 0 -- -- 71
2020-03-18 17:00:00 14.5 22 Sur 32 Sur 0 -- -- 67
2020-03-18 16:00:00 14.6 29 Sur 39 Sur 0 -- -- 65
2020-03-18 15:00:00 14.8 32 Sur 40 Sur 0 -- -- 65
2020-03-18 14:00:00 15.2 31 Sur 37 Sur 0 -- -- 61
2020-03-18 13:00:00 15 17 Sur 26 Sur 0 -- -- 70
2020-03-18 12:00:00 12.7 3 Norte 8 Nordeste 0 -- -- 80
2020-03-18 11:00:00 10.2 3 Norte 11 Norte 0 -- -- 97
2020-03-18 10:00:00 8.8 4 Norte 7 Norte 0 -- -- 99
2020-03-18 09:00:00 7.2 0 Calma 4 Norte 0 -- -- 100
2020-03-18 08:00:00 6.5 3 Nordeste 5 Noroeste 0 -- -- 100
2020-03-18 07:00:00 5.9 4 Norte 6 Norte 0 -- -- 100
2020-03-18 06:00:00 5.8 3 Norte 5 Nordeste 0 -- -- 100
2020-03-18 05:00:00 5.9 4 Norte 5 Noroeste 0 -- -- 100
2020-03-18 04:00:00 6.5 3 Norte 6 Norte 0 -- -- 100
2020-03-18 03:00:00 6.6 2 Norte 6 Norte 0 -- -- 100
2020-03-18 02:00:00 6.8 3 Norte 7 Norte 0 -- -- 100
2020-03-18 01:00:00 6.9 6 Norte 8 Norte 0 -- -- 100
2020-03-18 00:00:00 7.9 2 Norte 5 Noroeste 0 -- -- 100
2020-03-17 23:00:00 7.7 5 Norte 6 Norte 0 -- -- 99
2020-03-17 22:00:00 8.8 2 Nordeste 4 Nordeste 0 -- -- 98
2020-03-17 21:00:00 9.5 2 Nordeste 6 Norte 0 -- -- 96
2020-03-17 20:00:00 10.6 3 Norte 6 Sur 0 -- -- 92
2020-03-17 19:00:00 11.4 5 Sur 9 Sur 0 -- -- 90
2020-03-17 18:00:00 12.8 0 Calma -- -- 0 -- -- 85
2020-03-17 17:00:00 13.4 0 Calma 4 Nordeste 0 -- -- 81
2020-03-17 16:00:00 13.2 0 Calma 2 Nordeste 0.2 -- -- 82
2020-03-17 15:00:00 12.3 3 Norte 5 Norte 0 -- -- 88
2020-03-17 14:00:00 12.8 0 Calma 4 Nordeste 0 -- -- 91
2020-03-17 13:00:00 11 2 Norte 5 Norte 0 -- -- 97
2020-03-17 12:00:00 9.9 3 Norte 6 Norte 0 -- -- 99
2020-03-17 11:00:00 9.4 4 Norte 6 Nordeste 0 -- -- 99
2020-03-17 10:00:00 8.3 4 Norte 7 Norte 0 -- -- 100
2020-03-17 09:00:00 7.5 5 Norte 7 Norte 0 -- -- 100
2020-03-17 08:00:00 7.1 3 Nordeste 6 Norte 0 -- -- 100
2020-03-17 07:00:00 7 6 Norte 8 Nordeste 0.4 -- -- 100
2020-03-17 06:00:00 7 6 Norte 10 Nordeste 0.6 -- -- 100
2020-03-17 05:00:00 6.8 7 Norte 10 Norte 0 -- -- 100
2020-03-17 04:00:00 6.9 2 Noroeste 6 Norte 0 -- -- 100
2020-03-17 03:00:00 6.6 4 Norte 6 Nordeste 0.2 -- -- 100
2020-03-17 02:00:00 7 3 Nordeste 6 Nordeste 0 -- -- 100
2020-03-17 01:00:00 7.1 4 Nordeste 10 Nordeste 0 -- -- 100
2020-03-17 00:00:00 7.1 4 Nordeste 8 Nordeste 0 -- -- 100
2020-03-16 23:00:00 7.1 2 Nordeste 5 Nordeste 0 -- -- 100
2020-03-16 22:00:00 7.1 3 Noroeste 7 Oeste 0 -- -- 100
2020-03-16 21:00:00 6.8 2 Norte 9 Norte 1 -- -- 100
2020-03-16 20:00:00 6.9 8 Norte 13 Norte 2.6 -- -- 100
2020-03-16 19:00:00 7.2 5 Noroeste 12 Norte 4 -- -- 100
2020-03-16 18:00:00 7.3 0 Calma 8 Norte 4 -- -- 100
2020-03-16 17:00:00 7.3 4 Norte 6 Norte 3.2 -- -- 99
2020-03-16 16:00:00 7.1 3 Noroeste 10 Noroeste 4.2 -- -- 99
2020-03-16 15:00:00 7.2 2 Noroeste 10 Norte 1.8 -- -- 99
2020-03-16 14:00:00 6.8 5 Norte 8 Norte 5.4 -- -- 99
2020-03-16 13:00:00 7.3 6 Norte 8 Norte 2.8 -- -- 98
2020-03-16 12:00:00 7.4 6 Sudoeste 11 Noroeste 3.8 -- -- 97
2020-03-16 11:00:00 7.3 7 Noroeste 21 Oeste 1.8 -- -- 94
2020-03-16 10:00:00 8.2 12 Oeste 24 Oeste 3.4 -- -- 98
2020-03-16 09:00:00 8.5 5 Sudoeste 11 Sudeste 1.2 -- -- 99
2020-03-16 08:00:00 8.5 4 Nordeste 10 Norte 1.2 -- -- 99
2020-03-16 07:00:00 8.5 3 Nordeste 6 Oeste 0.2 -- -- 97
2020-03-16 06:00:00 8.6 3 Nordeste 19 Sudeste 0.6 -- -- 96
2020-03-16 05:00:00 8.5 6 Sudoeste 15 Sudoeste 1.2 -- -- 99
2020-03-16 04:00:00 8.1 5 Norte 13 Noroeste 2.4 -- -- 99
2020-03-16 03:00:00 8.1 3 Norte 17 Sur 2.2 -- -- 98
2020-03-16 02:00:00 8.3 17 Sur 23 Sur 6.4 -- -- 97
2020-03-16 01:00:00 8.6 16 Sur 39 Sur 3.6 -- -- 95
2020-03-16 00:00:00 8.8 12 Sur 40 Sudeste 0.2 -- -- 92
2020-03-15 23:00:00 10.6 18 Sur 39 Sudeste 0 -- -- 78
2020-03-15 22:00:00 10.9 12 Sudeste 35 Sudeste 0 -- -- 76
2020-03-15 21:00:00 11.4 17 Sur 44 Sur 0 -- -- 74
2020-03-15 20:00:00 12 31 Sur 44 Sudeste 0 -- -- 74
2020-03-15 19:00:00 13.1 12 Sur 30 Sudoeste 0 -- -- 70
2020-03-15 18:00:00 13.8 14 Sur 41 Sur 0 -- -- 68
2020-03-15 17:00:00 14.8 26 Sur 44 Sudeste 0 -- -- 65
2020-03-15 16:00:00 16.1 23 Sur 45 Sudeste 0 -- -- 59
2020-03-15 15:00:00 17.3 22 Sur 44 Sur 0 -- -- 51
2020-03-15 14:00:00 19.7 24 Sur 37 Sur 0 -- -- 40
2020-03-15 13:00:00 19 27 Sur 36 Sur 0 -- -- 39
2020-03-15 12:00:00 17.8 27 Sur 32 Sur 0 -- -- 49
2020-03-15 11:00:00 16.6 8 Sur 16 Sur 0 -- -- 58
2020-03-15 10:00:00 13.8 0 Calma 5 Norte 0 -- -- 71
2020-03-15 09:00:00 6 3 Norte 7 Norte 0 -- -- 100
2020-03-15 08:00:00 4.5 6 Norte 8 Norte 0 -- -- 100
2020-03-15 07:00:00 5.2 3 Norte 8 Norte 0 -- -- 100
2020-03-15 06:00:00 5.6 4 Norte 8 Norte 0 -- -- 99
2020-03-15 05:00:00 6 2 Norte 3 Norte 0 -- -- 99
2020-03-15 04:00:00 6.4 0 Calma 4 Norte 0 -- -- 98
2020-03-15 03:00:00 6.8 3 Sudeste 6 Sur 0 -- -- 96
2020-03-15 02:00:00 7.6 5 Sur 11 Sur 0 -- -- 94
2020-03-15 01:00:00 8 8 Sur 17 Sur 0 -- -- 93
2020-03-15 00:00:00 8.6 9 Sur 17 Sur 0 -- -- 92
2020-03-14 23:00:00 9.3 8 Sudoeste 21 Sur 0 -- -- 87
2020-03-14 22:00:00 9.5 13 Sur 20 Sur 0 -- -- 87
2020-03-14 21:00:00 9.9 8 Sur 29 Sur 0 -- -- 85
2020-03-14 20:00:00 11.6 23 Sur 32 Sur 0 -- -- 78
2020-03-14 19:00:00 11.8 23 Sur 42 Sur 0 -- -- 76
2020-03-14 18:00:00 12.9 24 Sur 42 Sur 0 -- -- 71
2020-03-14 17:00:00 14 31 Sur 48 Sur 0 -- -- 69
2020-03-14 16:00:00 15 33 Sur 53 Sur 0 -- -- 66
2020-03-14 15:00:00 14.8 40 Sur 54 Sur 0 -- -- 67
2020-03-14 14:00:00 12.9 45 Sur 57 Sur 0 -- -- 76
2020-03-14 13:00:00 11.5 50 Sur 57 Sur 0 -- -- 81
2020-03-14 12:00:00 11.4 38 Sur 45 Sur 0 -- -- 82
2020-03-14 11:00:00 9.8 27 Sur 37 Sur 0 -- -- 92
2020-03-14 10:00:00 8.4 21 Sur 28 Sudeste 0 -- -- 100
2020-03-14 09:00:00 8.1 9 Sur 12 Sur 0 -- -- 99
2020-03-14 08:00:00 7.9 4 Sur 8 Sur 0 -- -- 99
2020-03-14 07:00:00 7.2 0 Calma 2 Sudeste 0 -- -- 99
2020-03-14 06:00:00 6.8 0 Calma 5 Norte 0 -- -- 99
2020-03-14 05:00:00 6.7 3 Norte 5 Nordeste 0 -- -- 98
2020-03-14 04:00:00 7.1 0 Calma 5 Oeste 0 -- -- 98
2020-03-14 03:00:00 7.9 3 Sudoeste 12 Sur 0 -- -- 96
2020-03-14 02:00:00 8.8 9 Sur 17 Sur 0 -- -- 94
2020-03-14 01:00:00 9.1 11 Sur 16 Sur 0 -- -- 92
2020-03-14 00:00:00 10.1 13 Sur 27 Sur 0 -- -- 89
2020-03-13 23:00:00 10.8 17 Sur 24 Sur 0 -- -- 86
2020-03-13 22:00:00 11.6 9 Sur 26 Sur 0 -- -- 82
2020-03-13 21:00:00 11.8 20 Sur 31 Sur 0 -- -- 81
2020-03-13 20:00:00 12.4 24 Sur 40 Sur 0 -- -- 78
2020-03-13 19:00:00 12.6 33 Sur 44 Sur 0 -- -- 76
2020-03-13 18:00:00 13.4 38 Sur 45 Sur 0 -- -- 71
2020-03-13 17:00:00 14.9 33 Sur 42 Sur 0 -- -- 64
2020-03-13 16:00:00 16.3 28 Sur 38 Sur 0 -- -- 60
2020-03-13 15:00:00 16.3 31 Sur 37 Sur 0 -- -- 60
2020-03-13 14:00:00 15.7 21 Sur 27 Sur 0 -- -- 63
2020-03-13 13:00:00 17.3 19 Sudeste 39 Sudeste 0 -- -- 60
2020-03-13 12:00:00 15.2 30 Sur 37 Sur 0 -- -- 64
2020-03-13 11:00:00 16.3 23 Sur 37 Sur 0 -- -- 65
2020-03-13 10:00:00 13.5 25 Sur 38 Sudeste 0 -- -- 78
2020-03-13 09:00:00 10.9 22 Sur 31 Sur 0 -- -- 88
2020-03-13 08:00:00 9.7 24 Sur 35 Sur 0 -- -- 94
2020-03-13 07:00:00 10.2 14 Sur 25 Sur 0 -- -- 92
2020-03-13 06:00:00 10.7 13 Sur 33 Sur 0 -- -- 91
2020-03-13 05:00:00 11.9 27 Sur 37 Sur 0 -- -- 85
2020-03-13 04:00:00 13.2 14 Sur 41 Sur 0 -- -- 77
2020-03-13 03:00:00 13.3 13 Sur 25 Sur 0 -- -- 78
2020-03-13 02:00:00 13.8 8 Sudoeste 26 Sur 0 -- -- 70
2020-03-13 01:00:00 13.2 6 Noroeste 10 Noroeste 0 -- -- 71
2020-03-13 00:00:00 13.7 5 Norte 24 Sur 0 -- -- 68
2020-03-12 23:00:00 14.3 0 Calma 9 Oeste 0 -- -- 64
2020-03-12 22:00:00 14 5 Norte 6 Norte 0 -- -- 66
2020-03-12 21:00:00 15.8 2 Norte 9 Sur 0 -- -- 58
2020-03-12 20:00:00 17.5 5 Sur 15 Sur 0 -- -- 52
2020-03-12 19:00:00 19.1 14 Sur 26 Sur 0 -- -- 48
2020-03-12 18:00:00 20.8 19 Sur 25 Sudeste 0 -- -- 44
2020-03-12 17:00:00 24.4 22 Sudeste 31 Sur 0 -- -- 34
2020-03-12 16:00:00 24.4 18 Sur 34 Sudeste 0 -- -- 36
2020-03-12 15:00:00 26.1 24 Sur 35 Sur 0 -- -- 31
2020-03-12 14:00:00 25.9 24 Sur 32 Sur 0 -- -- 30
2020-03-12 13:00:00 22.9 4 Nordeste 8 Nordeste 0 -- -- 36
2020-03-12 12:00:00 19.6 5 Norte 12 Nordeste 0 -- -- 45
2020-03-12 11:00:00 16.3 8 Norte 12 Norte 0.2 -- -- 53
2020-03-12 10:00:00 13.1 6 Norte 10 Norte 0 -- -- 62
2020-03-12 09:00:00 8.4 4 Norte 9 Norte 0 -- -- 82
2020-03-12 08:00:00 6.3 4 Norte 8 Norte 0 -- -- 90
2020-03-12 07:00:00 6.7 3 Norte 6 Norte 0 -- -- 89
2020-03-12 06:00:00 6.2 4 Norte 8 Norte 0 -- -- 91
2020-03-12 05:00:00 7.7 3 Norte 6 Noroeste 0 -- -- 82
2020-03-12 04:00:00 6.4 5 Norte 10 Norte 0 -- -- 90
2020-03-12 03:00:00 6.3 6 Norte 10 Norte 0 -- -- 92
2020-03-12 02:00:00 7.6 5 Norte 8 Norte 0 -- -- 86
2020-03-12 01:00:00 7.5 6 Norte 10 Nordeste 0 -- -- 86
2020-03-12 00:00:00 8.3 5 Norte 9 Norte 0 -- -- 82
2020-03-11 23:00:00 8.9 7 Nordeste 8 Norte 0 -- -- 80
2020-03-11 22:00:00 10.6 3 Norte 4 Norte 0 -- -- 71
2020-03-11 21:00:00 12.2 0 Calma 18 Sur 0 -- -- 65
2020-03-11 20:00:00 13.5 15 Sur 40 Sur 0 -- -- 60
2020-03-11 19:00:00 15.5 35 Sur 48 Sur 0 -- -- 53
2020-03-11 18:00:00 17.2 39 Sur 51 Sur 0 -- -- 45
2020-03-11 17:00:00 19.6 40 Sur 52 Sur 0 -- -- 41
2020-03-11 16:00:00 20.8 39 Sur 50 Sur 0 -- -- 40
2020-03-11 15:00:00 21.2 41 Sur 51 Sur 0 -- -- 40
2020-03-11 14:00:00 20.4 40 Sur 50 Sur 0 -- -- 44
2020-03-11 13:00:00 19.7 32 Sur 43 Sur 0 -- -- 43
2020-03-11 12:00:00 18.9 19 Sur 27 Sur 0 -- -- 43
2020-03-11 11:00:00 16 3 Este 9 Sudeste 0 -- -- 43
2020-03-11 10:00:00 11.8 6 Norte 10 Norte 0 -- -- 58
2020-03-11 09:00:00 4.4 6 Norte 9 Norte 0 -- -- 95
2020-03-11 08:00:00 3 6 Norte 9 Norte 0 -- -- 100
2020-03-11 07:00:00 2.4 5 Norte 9 Norte 0 -- -- 100
2020-03-11 06:00:00 3.2 6 Norte 9 Norte 0 -- -- 100
2020-03-11 05:00:00 3 8 Norte 10 Norte 0 -- -- 100
2020-03-11 04:00:00 3.3 8 Nordeste 10 Norte 0 -- -- 100
2020-03-11 03:00:00 3.1 9 Norte 10 Norte 0 -- -- 99
2020-03-11 02:00:00 4.1 7 Norte 11 Norte 0 -- -- 99
2020-03-11 01:00:00 5 3 Nordeste 4 Nordeste 0 -- -- 97
2020-03-11 00:00:00 5.7 2 Nordeste 6 Norte 0 -- -- 95
2020-03-10 23:00:00 6.8 2 Sudeste 8 Norte 0 -- -- 92
2020-03-10 22:00:00 7.1 5 Norte 9 Norte 0 -- -- 90
2020-03-10 21:00:00 8.2 3 Norte 17 Sur 0 -- -- 85
2020-03-10 20:00:00 8.6 13 Sur 23 Sur 0 -- -- 83
2020-03-10 19:00:00 9.6 16 Sur 27 Sur 0 -- -- 78
2020-03-10 18:00:00 10.7 21 Sur 30 Sur 0 -- -- 73
2020-03-10 17:00:00 11.1 25 Sur 42 Sur 0 -- -- 70
2020-03-10 16:00:00 10.6 36 Sur 55 Sur 0 -- -- 71
2020-03-10 15:00:00 10.8 36 Sur 49 Sur 0 -- -- 68
2020-03-10 14:00:00 10.2 38 Sur 56 Sur 0 -- -- 68
2020-03-10 13:00:00 13.1 38 Sur 48 Sudeste 0 -- -- 56
2020-03-10 12:00:00 13.1 19 Sur 30 Sur 0 -- -- 55
2020-03-10 11:00:00 10.6 10 Sur 14 Sur 0 -- -- 61
2020-03-10 10:00:00 9.6 4 Sudeste 10 Sur 0 -- -- 64
2020-03-10 09:00:00 4.4 0 Calma 15 Sur 0 -- -- 85
2020-03-10 08:00:00 3.4 10 Sur 27 Sur 0 -- -- 86
2020-03-10 07:00:00 3.4 17 Sur 31 Sudoeste 0 -- -- 86
2020-03-10 06:00:00 4.1 20 Sur 32 Sur 0 -- -- 82
2020-03-10 05:00:00 4.3 23 Sur 40 Sur 0 -- -- 81
2020-03-10 04:00:00 4.4 28 Sur 47 Sur 0 -- -- 80
2020-03-10 03:00:00 5 37 Sur 55 Sur 0 -- -- 76
2020-03-10 02:00:00 6 40 Sur 53 Sur 0 -- -- 72
2020-03-10 01:00:00 7.6 33 Sur 47 Sur 0 -- -- 60
2020-03-10 00:00:00 11.2 12 Nordeste 28 Nordeste 0 -- -- 42
2020-03-09 23:00:00 10.9 14 Nordeste 57 Nordeste 0 -- -- 42
2020-03-09 22:00:00 11.1 15 Norte 57 Norte 0 -- -- 41
2020-03-09 21:00:00 11.8 28 Norte 59 Norte 0 -- -- 38
2020-03-09 20:00:00 11.2 22 Norte 47 Noroeste 0 -- -- 38
2020-03-09 19:00:00 11.7 16 Norte 53 Nordeste 0 -- -- 37
2020-03-09 18:00:00 12.2 23 Norte 51 Norte 0 -- -- 35
2020-03-09 17:00:00 13.9 27 Norte 66 Nordeste 0 -- -- 28
2020-03-09 16:00:00 14.6 48 Norte 74 Norte 0 -- -- 27
2020-03-09 15:00:00 15.2 35 Nordeste 64 Norte 0 -- -- 30
2020-03-09 14:00:00 14.7 40 Nordeste 62 Nordeste 0 -- -- 28
2020-03-09 13:00:00 14.8 33 Nordeste 53 Norte 0 -- -- 27
2020-03-09 12:00:00 15 29 Nordeste 53 Norte 0 -- -- 30
2020-03-09 11:00:00 14.3 33 Nordeste 57 Nordeste 0 -- -- 29
2020-03-09 10:00:00 13.4 27 Nordeste 53 Nordeste 0 -- -- 32
2020-03-09 09:00:00 8 6 Norte 33 Norte 0 -- -- 50
2020-03-09 08:00:00 8.2 19 Norte 40 Norte 0 -- -- 49
2020-03-09 07:00:00 2.3 6 Norte 12 Norte 0 -- -- 100
2020-03-09 06:00:00 2.4 2 Norte 9 Nordeste 0 -- -- 100
2020-03-09 05:00:00 1.9 7 Norte 9 Norte 0 -- -- 98
2020-03-09 04:00:00 2.5 4 Norte 10 Nordeste 0 -- -- 98
2020-03-09 03:00:00 2.7 6 Norte 8 Sudeste 0 -- -- 99
2020-03-09 02:00:00 2.8 6 Nordeste 8 Nordeste 0 -- -- 96
2020-03-09 01:00:00 3.5 2 Norte 7 Norte 0 -- -- 96
2020-03-09 00:00:00 4 4 Norte 9 Norte 0 -- -- 96
2020-03-08 23:00:00 5.5 2 Nordeste 4 Nordeste 0 -- -- 91
2020-03-08 22:00:00 6.8 3 Nordeste 5 Nordeste 0 -- -- 85
2020-03-08 21:00:00 8.1 4 Sur 16 Sur 0 -- -- 82
2020-03-08 20:00:00 9.7 12 Sur 35 Sur 0 -- -- 75
2020-03-08 19:00:00 11.2 27 Sur 45 Sudeste 0 -- -- 69
2020-03-08 18:00:00 11.9 32 Sur 45 Sur 0 -- -- 66
2020-03-08 17:00:00 13.4 37 Sur 49 Sur 0 -- -- 61
2020-03-08 16:00:00 13.1 40 Sur 58 Sur 0 -- -- 63
2020-03-08 15:00:00 14 41 Sur 49 Sur 0 -- -- 59
2020-03-08 14:00:00 14.3 42 Sur 50 Sur 0 -- -- 58
2020-03-08 13:00:00 14.8 34 Sur 43 Sudeste 0 -- -- 57
2020-03-08 12:00:00 13.6 26 Sur 33 Sur 0 -- -- 55
2020-03-08 11:00:00 13.5 6 Sudoeste 17 Sur 0 -- -- 47
2020-03-08 10:00:00 10.6 5 Nordeste 8 Nordeste 0 -- -- 52
2020-03-08 09:00:00 3.1 6 Norte 10 Norte 0 -- -- 79
2020-03-08 08:00:00 2.9 3 Nordeste 12 Norte 0 -- -- 79
2020-03-08 07:00:00 2.8 0 Calma 12 Nordeste 0 -- -- 80
2020-03-08 06:00:00 2.5 6 Norte 9 Nordeste 0 -- -- 84
2020-03-08 05:00:00 4.3 4 Nordeste 13 Sur 0 -- -- 79
2020-03-08 04:00:00 6.1 11 Sur 15 Sur 0 -- -- 80
2020-03-08 03:00:00 7.2 4 Este 10 Norte 0 -- -- 60
2020-03-08 02:00:00 7.2 6 Norte 9 Nordeste 0 -- -- 61
2020-03-08 01:00:00 7.9 4 Norte 15 Nordeste 0 -- -- 57
2020-03-08 00:00:00 9.1 5 Norte 12 Oeste 0 -- -- 52
2020-03-07 23:00:00 8.7 2 Norte 8 Norte 0 -- -- 53
2020-03-07 22:00:00 9.4 6 Norte 17 Norte 0 -- -- 50
2020-03-07 21:00:00 9.5 10 Norte 19 Norte 0 -- -- 50
2020-03-07 20:00:00 10.9 12 Norte 36 Norte 0 -- -- 45
2020-03-07 19:00:00 11.8 18 Norte 39 Noroeste 0 -- -- 41
2020-03-07 18:00:00 12.9 17 Norte 53 Nordeste 0 -- -- 38
2020-03-07 17:00:00 14.4 27 Norte 65 Norte 0 -- -- 33
2020-03-07 16:00:00 14.5 38 Norte 64 Nordeste 0 -- -- 29
2020-03-07 15:00:00 14 39 Norte 62 Nordeste 0 -- -- 23
2020-03-07 14:00:00 13.6 34 Nordeste 65 Norte 0 -- -- 24
2020-03-07 13:00:00 12.6 34 Nordeste 62 Nordeste 0 -- -- 28
2020-03-07 12:00:00 12.9 19 Nordeste 57 Norte 0 -- -- 30
2020-03-07 11:00:00 11.1 32 Nordeste 66 Nordeste 0 -- -- 36
2020-03-07 10:00:00 8.1 41 Nordeste 78 Nordeste 0 -- -- 46
2020-03-07 09:00:00 7 45 Norte 75 Norte 0 -- -- 48
2020-03-07 08:00:00 5.7 22 Norte 56 Nordeste 0 -- -- 50
2020-03-07 07:00:00 4.9 25 Norte 64 Nordeste 0 -- -- 53
2020-03-07 06:00:00 4.6 33 Norte 57 Nordeste 0 -- -- 57
2020-03-07 05:00:00 2.8 25 Norte 45 Norte 0 -- -- 76
2020-03-07 04:00:00 2.1 31 Norte 52 Norte 0 -- -- 84
2020-03-07 03:00:00 2.1 31 Norte 44 Norte 0 -- -- 85
2020-03-07 02:00:00 4.2 22 Norte 33 Norte 0 -- -- 62
2020-03-07 01:00:00 3.9 13 Norte 37 Nordeste 0 -- -- 59
2020-03-07 00:00:00 4.8 26 Nordeste 35 Nordeste 0 -- -- 57
2020-03-06 23:00:00 4.6 19 Nordeste 39 Nordeste 0 -- -- 61
2020-03-06 22:00:00 5.3 29 Nordeste 49 Nordeste 0 -- -- 52
2020-03-06 21:00:00 4.9 19 Norte 31 Norte 0 -- -- 56
2020-03-06 20:00:00 5 19 Norte 42 Norte 0 -- -- 54
2020-03-06 19:00:00 7.1 19 Norte 45 Nordeste 0 -- -- 41
2020-03-06 18:00:00 8.4 17 Norte 38 Oeste 0 -- -- 34
2020-03-06 17:00:00 10.4 19 Norte 38 Norte 0 -- -- 31
2020-03-06 16:00:00 10.9 27 Norte 44 Nordeste 0 -- -- 33
2020-03-06 15:00:00 10.5 4 Oeste 32 Sudoeste 0 -- -- 52
2020-03-06 14:00:00 10.3 19 Sudoeste 38 Sudoeste 0 -- -- 52
2020-03-06 13:00:00 11.2 8 Sudoeste 31 Sur 0 -- -- 51
2020-03-06 12:00:00 13.4 9 Sur 22 Sudeste 0 -- -- 46
2020-03-06 11:00:00 9.4 4 Norte 14 Norte 0 -- -- 59
2020-03-06 10:00:00 4.7 11 Norte 17 Norte 0 -- -- 80
2020-03-06 09:00:00 0.9 0 Calma 8 Norte 0.2 -- -- 92
2020-03-06 08:00:00 -0.7 0 Calma 9 Norte 0 -- -- 97
2020-03-06 07:00:00 -1.1 3 Oeste 13 Sur 0 -- -- 96
2020-03-06 06:00:00 -1.1 4 Noroeste 8 Norte 0 -- -- 97
2020-03-06 05:00:00 -0.7 3 Sudoeste 9 Sur 0 -- -- 95
2020-03-06 04:00:00 0.2 2 Sur 9 Sur 0 -- -- 92
2020-03-06 03:00:00 1.1 4 Sur 6 Sur 0 -- -- 87
2020-03-06 02:00:00 1.9 4 Norte 6 Sudoeste 0 -- -- 82
2020-03-06 01:00:00 3.7 2 Norte 10 Nordeste 0 -- -- 73
2020-03-06 00:00:00 5 6 Nordeste 19 Norte 0 -- -- 71
2020-03-05 23:00:00 4.6 13 Norte 21 Norte 0 -- -- 81
2020-03-05 22:00:00 5.5 8 Norte 12 Norte 0 -- -- 89
2020-03-05 21:00:00 6.7 5 Norte 8 Norte 0 -- -- 89
2020-03-05 20:00:00 7.6 5 Norte 14 Norte 0 -- -- 88
2020-03-05 19:00:00 8.9 8 Norte 13 Norte 0 -- -- 80
2020-03-05 18:00:00 12.3 6 Oeste 26 Sudoeste 0 -- -- 60
2020-03-05 17:00:00 14.3 11 Sur 40 Sudeste 0 -- -- 57
2020-03-05 16:00:00 13 7 Sur 24 Sudeste 0.6 -- -- 83
2020-03-05 15:00:00 12.9 13 Sur 21 Sur 0 -- -- 78
2020-03-05 14:00:00 13.9 7 Este 27 Sudoeste 0 -- -- 69
2020-03-05 13:00:00 14.8 14 Sudoeste 35 Sudoeste 0 -- -- 64
2020-03-05 12:00:00 13.5 11 Sudeste 33 Sur 0 -- -- 74
2020-03-05 11:00:00 11 2 Sur 8 Este 0 -- -- 80
2020-03-05 10:00:00 10.7 0 Calma 6 Norte 0 -- -- 93
2020-03-05 09:00:00 6 3 Norte 8 Norte 0 -- -- 100
2020-03-05 08:00:00 4.3 6 Norte 8 Nordeste 0 -- -- 100
2020-03-05 07:00:00 4.9 0 Calma 9 Nordeste 0 -- -- 100
2020-03-05 06:00:00 5.1 3 Noroeste 6 Noroeste 0 -- -- 100
2020-03-05 05:00:00 5.3 4 Norte 12 Noroeste 0 -- -- 98
2020-03-05 04:00:00 5.7 6 Norte 9 Norte 0 -- -- 98
2020-03-05 03:00:00 6.4 0 Calma 2 Sudeste 0 -- -- 96
2020-03-05 02:00:00 6.5 3 Norte 4 Norte 0 -- -- 95
2020-03-05 01:00:00 7.4 3 Sudoeste 6 Sur 0 -- -- 95
2020-03-05 00:00:00 7.6 2 Nordeste 5 Norte 0 -- -- 91
2020-03-04 23:00:00 8.4 3 Norte 8 Sur 0 -- -- 88
2020-03-04 22:00:00 9.4 6 Sur 13 Sur 0 -- -- 85
2020-03-04 21:00:00 10.5 0 Calma 8 Norte 0 -- -- 79
2020-03-04 20:00:00 11.7 7 Norte 12 Norte 0 -- -- 73
2020-03-04 19:00:00 14.5 3 Sur 13 Sur 0 -- -- 63
2020-03-04 18:00:00 16.1 5 Sur 19 Sur 0 -- -- 57
2020-03-04 17:00:00 18.5 16 Sur 26 Sur 0 -- -- 50
2020-03-04 16:00:00 19.4 19 Sur 32 Sur 0 -- -- 46
2020-03-04 15:00:00 18.7 23 Sur 33 Sur 0 -- -- 50
2020-03-04 14:00:00 16.1 23 Sur 33 Sur 0 -- -- 54
2020-03-04 13:00:00 16.1 23 Sur 31 Sur 0 -- -- 48
2020-03-04 12:00:00 15 5 Sur 11 Sudeste 0 -- -- 39
2020-03-04 11:00:00 12.5 0 Calma 13 Norte 0 -- -- 42
2020-03-04 10:00:00 7.5 2 Nordeste 8 Nordeste 0 -- -- 58
2020-03-04 09:00:00 0.7 5 Norte 10 Norte 0 -- -- 86
2020-03-04 08:00:00 0.1 9 Norte 12 Nordeste 0 -- -- 88
2020-03-04 07:00:00 2 6 Norte 10 Norte 0 -- -- 75
2020-03-04 06:00:00 1.7 5 Norte 12 Norte 0 -- -- 77
2020-03-04 05:00:00 2.7 6 Norte 12 Noroeste 0 -- -- 70
2020-03-04 04:00:00 4.3 2 Norte 10 Nordeste 0 -- -- 61
2020-03-04 03:00:00 5.7 2 Nordeste 15 Noroeste 0 -- -- 56
2020-03-04 02:00:00 8.2 8 Noroeste 30 Norte 0 -- -- 45
2020-03-04 01:00:00 7.7 17 Norte 35 Norte 0 -- -- 50
2020-03-04 00:00:00 8.4 24 Norte 38 Norte 0 -- -- 50
2020-03-03 23:00:00 8 19 Norte 29 Norte 0 -- -- 56
2020-03-03 22:00:00 9.8 15 Norte 45 Norte 0 -- -- 49
2020-03-03 21:00:00 10.3 26 Norte 50 Norte 0 -- -- 47
2020-03-03 20:00:00 8.6 20 Norte 28 Norte 0 -- -- 63
2020-03-03 19:00:00 8.5 5 Norte 22 Sur 0 -- -- 70
2020-03-03 18:00:00 9.2 6 Sur 20 Sudoeste 0 -- -- 67
2020-03-03 17:00:00 9 11 Sur 28 Sudeste 0 -- -- 68
2020-03-03 16:00:00 8.8 10 Sur 26 Norte 0 -- -- 67
2020-03-03 15:00:00 9.7 11 Sudeste 35 Sur 0 -- -- 60
2020-03-03 14:00:00 8.2 20 Sudeste 38 Sur 0 -- -- 68
2020-03-03 13:00:00 7.6 20 Sur 31 Sur 0 -- -- 70
2020-03-03 12:00:00 6.6 24 Sur 38 Sur 0 -- -- 76
2020-03-03 11:00:00 6.8 19 Sur 38 Sur 0 -- -- 66
2020-03-03 10:00:00 3.2 6 Norte 9 Nordeste 0 -- -- 79
2020-03-03 09:00:00 1.8 6 Nordeste 15 Norte 0 -- -- 84
2020-03-03 08:00:00 0.1 7 Norte 11 Norte 0 -- -- 90
2020-03-03 07:00:00 -0.3 7 Norte 13 Noroeste 0 -- -- 92
2020-03-03 06:00:00 -0.5 10 Norte 16 Norte 0 -- -- 92
2020-03-03 05:00:00 -0.4 3 Norte 5 Sur 0 -- -- 91
2020-03-03 04:00:00 -0.3 4 Norte 8 Norte 0 -- -- 89
2020-03-03 03:00:00 0.8 4 Norte 9 Sudeste 0 -- -- 85
2020-03-03 02:00:00 2.6 6 Norte 29 Sudoeste 0 -- -- 75
2020-03-03 01:00:00 2.4 4 Norte 11 Norte 0 -- -- 76
2020-03-03 00:00:00 3.6 5 Norte 27 Oeste 0 -- -- 71